createdAt,value
2023-09-21T00:00:51.764Z,13.07
2023-09-21T00:03:40.070Z,13.06
2023-09-21T00:06:26.546Z,12.97
2023-09-21T00:09:13.178Z,12.95
2023-09-21T00:11:59.809Z,12.99
2023-09-21T00:14:46.381Z,12.98
2023-09-21T00:17:34.643Z,12.91
2023-09-21T00:20:37.105Z,13.10
2023-09-21T00:23:25.586Z,13.07
2023-09-21T00:26:12.887Z,13.01
2023-09-21T00:29:05.439Z,12.98
2023-09-21T00:31:51.862Z,13.03
2023-09-21T00:34:38.537Z,12.96
2023-09-21T00:37:25.841Z,13.03
2023-09-21T00:40:14.938Z,13.08
2023-09-21T00:43:02.234Z,12.97
2023-09-21T00:45:52.506Z,12.89
2023-09-21T00:48:43.563Z,12.87
2023-09-21T00:51:33.608Z,12.76
2023-09-21T00:54:21.405Z,12.84
2023-09-21T00:57:13.044Z,12.74
2023-09-21T01:00:00.692Z,12.76
2023-09-21T01:02:51.202Z,12.77
2023-09-21T01:05:47.826Z,12.68
2023-09-21T01:08:34.447Z,12.66
2023-09-21T01:11:21.966Z,12.62
2023-09-21T01:14:08.648Z,12.59
2023-09-21T01:16:55.443Z,12.59
2023-09-21T01:19:41.899Z,12.64
2023-09-21T01:22:29.590Z,12.65
2023-09-21T01:25:16.783Z,12.63
2023-09-21T01:28:03.698Z,12.66
2023-09-21T01:30:53.052Z,12.68
2023-09-21T01:33:45.608Z,12.62
2023-09-21T01:36:33.502Z,12.71
2023-09-21T01:39:20.373Z,12.74
2023-09-21T01:42:09.319Z,12.82
2023-09-21T01:44:56.016Z,12.87
2023-09-21T01:47:42.671Z,12.83
2023-09-21T01:50:29.903Z,12.79
2023-09-21T01:53:20.965Z,12.91
2023-09-21T01:56:08.260Z,12.89
2023-09-21T01:58:54.602Z,12.94
2023-09-21T02:01:43.356Z,12.91
2023-09-21T02:04:29.743Z,13.01
2023-09-21T02:07:16.895Z,13.04
2023-09-21T02:10:04.617Z,13.10
2023-09-21T02:12:56.588Z,13.15
2023-09-21T02:15:44.909Z,13.28
2023-09-21T02:18:32.335Z,13.44
2023-09-21T02:21:21.109Z,13.39
2023-09-21T02:24:08.290Z,13.42
2023-09-21T02:26:54.868Z,13.34
2023-09-21T02:29:42.110Z,13.39
2023-09-21T02:32:28.817Z,13.38
2023-09-21T02:35:20.647Z,13.36
2023-09-21T02:38:08.976Z,13.36
2023-09-21T02:40:55.820Z,13.35
2023-09-21T02:43:42.144Z,13.42
2023-09-21T02:46:31.754Z,13.41
2023-09-21T02:49:18.223Z,13.48
2023-09-21T02:52:05.537Z,13.41
2023-09-21T02:54:54.271Z,13.61
2023-09-21T02:57:41.110Z,13.68
2023-09-21T03:00:28.792Z,13.65
2023-09-21T03:03:17.566Z,13.72
2023-09-21T03:06:04.553Z,13.70
2023-09-21T03:08:51.165Z,13.78
2023-09-21T03:11:39.763Z,13.61
2023-09-21T03:14:26.518Z,13.58
2023-09-21T03:17:13.103Z,13.68
2023-09-21T03:20:00.367Z,13.84
2023-09-21T03:22:47.450Z,13.88
2023-09-21T03:25:34.701Z,13.87
2023-09-21T03:28:24.218Z,13.92
2023-09-21T03:31:13.926Z,13.85
2023-09-21T03:34:03.774Z,13.89
2023-09-21T03:36:51.170Z,13.88
2023-09-21T03:39:38.359Z,13.91
2023-09-21T03:42:24.906Z,13.66
2023-09-21T03:45:15.325Z,13.72
2023-09-21T03:48:05.761Z,13.81
2023-09-21T03:50:56.743Z,13.81
2023-09-21T03:53:43.648Z,13.87
2023-09-21T03:56:30.545Z,13.94
2023-09-21T03:59:18.874Z,13.91
2023-09-21T04:02:05.334Z,13.85
2023-09-21T04:04:52.714Z,13.89
2023-09-21T04:07:39.585Z,13.89
2023-09-21T04:10:26.602Z,14.04
2023-09-21T04:13:12.766Z,13.96
2023-09-21T04:16:00.270Z,13.80
2023-09-21T04:18:47.636Z,13.84
2023-09-21T04:21:34.703Z,13.87
2023-09-21T04:24:21.766Z,13.93
2023-09-21T04:27:08.528Z,13.91
2023-09-21T04:29:54.840Z,13.83
2023-09-21T04:32:42.963Z,13.94
2023-09-21T04:35:29.628Z,13.92
2023-09-21T04:38:15.946Z,13.96
2023-09-21T04:41:02.273Z,14.00
2023-09-21T04:43:49.978Z,13.94
2023-09-21T04:46:39.677Z,13.92
2023-09-21T04:49:26.264Z,13.96
2023-09-21T04:52:12.853Z,14.04
2023-09-21T04:55:00.401Z,14.00
2023-09-21T04:57:47.074Z,13.99
2023-09-21T05:00:33.901Z,13.89
2023-09-21T05:03:20.433Z,13.78
2023-09-21T05:06:06.955Z,13.77
2023-09-21T05:08:54.788Z,14.09
2023-09-21T05:11:41.412Z,14.10
2023-09-21T05:14:28.210Z,14.16
2023-09-21T05:17:22.352Z,14.09
2023-09-21T05:20:12.478Z,14.06
2023-09-21T05:22:58.967Z,14.10
2023-09-21T05:25:45.838Z,14.02
2023-09-21T05:28:32.538Z,13.98
2023-09-21T05:31:19.277Z,14.04
2023-09-21T05:34:05.819Z,14.09
2023-09-21T05:36:52.942Z,14.23
2023-09-21T05:39:39.417Z,14.29
2023-09-21T05:42:25.730Z,13.98
2023-09-21T05:45:12.588Z,14.27
2023-09-21T05:47:59.091Z,14.35
2023-09-21T05:50:47.118Z,14.36
2023-09-21T05:53:33.653Z,14.39
2023-09-21T05:56:21.111Z,14.45
2023-09-21T05:59:08.053Z,14.46
2023-09-21T06:01:54.498Z,14.55
2023-09-21T06:04:44.783Z,14.65
2023-09-21T06:07:32.782Z,14.53
2023-09-21T06:10:19.596Z,14.59
2023-09-21T06:13:09.001Z,14.57
2023-09-21T06:15:55.653Z,14.62
2023-09-21T06:18:42.667Z,14.67
2023-09-21T06:21:31.722Z,14.27
2023-09-21T06:24:18.982Z,14.78
2023-09-21T06:27:05.230Z,14.78
2023-09-21T06:29:55.232Z,14.83
2023-09-21T06:32:41.825Z,14.95
2023-09-21T06:35:28.594Z,15.03
2023-09-21T06:38:16.485Z,15.08
2023-09-21T06:41:03.774Z,15.16
2023-09-21T06:43:52.143Z,15.26
2023-09-21T06:46:38.457Z,15.45
2023-09-21T06:49:24.962Z,15.55
2023-09-21T06:52:11.508Z,15.59
2023-09-21T06:54:58.695Z,15.61
2023-09-21T06:57:45.331Z,15.75
2023-09-21T07:00:31.764Z,15.84
2023-09-21T07:03:19.449Z,15.91
2023-09-21T07:06:06.696Z,16.05
2023-09-21T07:08:53.664Z,16.05
2023-09-21T07:11:41.226Z,16.16
2023-09-21T07:14:27.797Z,16.30
2023-09-21T07:17:14.248Z,16.44
2023-09-21T07:20:00.748Z,16.50
2023-09-21T07:22:47.237Z,16.56
2023-09-21T07:25:34.011Z,16.66
2023-09-21T07:28:20.490Z,16.76
2023-09-21T07:31:07.868Z,16.85
2023-09-21T07:33:58.154Z,16.97
2023-09-21T07:36:47.645Z,17.09
2023-09-21T07:39:34.398Z,17.24
2023-09-21T07:42:20.928Z,17.41
2023-09-21T07:45:08.160Z,17.56
2023-09-21T07:47:56.181Z,17.92
2023-09-21T07:50:43.072Z,18.19
2023-09-21T07:53:29.559Z,18.43
2023-09-21T07:56:17.733Z,18.52
2023-09-21T07:59:08.091Z,18.50
2023-09-21T08:01:57.404Z,18.91
2023-09-21T08:04:44.043Z,19.10
2023-09-21T08:07:31.426Z,19.33
2023-09-21T08:10:18.013Z,19.53
2023-09-21T08:13:04.672Z,19.72
2023-09-21T08:15:51.423Z,19.72
2023-09-21T08:18:37.793Z,19.77
2023-09-21T08:21:24.175Z,19.76
2023-09-21T08:24:10.846Z,19.81
2023-09-21T08:26:58.107Z,19.90
2023-09-21T08:29:44.751Z,20.08
2023-09-21T08:32:32.332Z,20.21
2023-09-21T08:35:18.814Z,20.30
2023-09-21T08:38:05.082Z,20.44
2023-09-21T08:40:53.780Z,20.66
2023-09-21T08:43:41.279Z,21.07
2023-09-21T08:46:28.416Z,21.07
2023-09-21T08:49:16.153Z,21.18
2023-09-21T08:52:05.087Z,21.39
2023-09-21T08:54:51.643Z,21.50
2023-09-21T08:57:39.152Z,21.62
2023-09-21T09:00:29.301Z,21.88
2023-09-21T09:03:18.488Z,22.14
2023-09-21T09:06:05.808Z,22.20
2023-09-21T09:08:52.607Z,22.41
2023-09-21T09:11:46.923Z,22.66
2023-09-21T09:14:33.326Z,22.73
2023-09-21T09:17:19.739Z,22.70
2023-09-21T09:20:07.281Z,22.74
2023-09-21T09:22:54.196Z,22.78
2023-09-21T09:25:41.449Z,22.78
2023-09-21T09:28:27.810Z,22.74
2023-09-21T09:31:16.064Z,22.71
2023-09-21T09:34:05.459Z,22.72
2023-09-21T09:36:53.284Z,22.87
2023-09-21T09:39:40.190Z,22.89
2023-09-21T09:42:27.548Z,23.01
2023-09-21T09:45:27.599Z,23.04
2023-09-21T09:48:17.662Z,23.09
2023-09-21T09:51:13.030Z,23.18
2023-09-21T09:54:00.887Z,23.19
2023-09-21T09:56:52.419Z,23.16
2023-09-21T09:59:40.721Z,23.26
2023-09-21T10:02:28.939Z,23.53
2023-09-21T10:05:15.412Z,23.50
2023-09-21T10:08:04.746Z,23.58
2023-09-21T10:10:57.862Z,23.72
2023-09-21T10:13:57.102Z,23.86
2023-09-21T10:16:50.579Z,23.94
2023-09-21T10:19:39.750Z,23.97
2023-09-21T10:22:30.444Z,23.89
2023-09-21T10:25:36.299Z,23.96
2023-09-21T10:28:29.378Z,24.13
2023-09-21T10:31:25.018Z,24.24
2023-09-21T10:34:20.515Z,24.47
2023-09-21T10:37:11.497Z,24.50
2023-09-21T10:39:59.583Z,24.41
2023-09-21T10:42:45.947Z,24.55
2023-09-21T10:46:01.094Z,24.56
2023-09-21T10:48:50.310Z,24.54
2023-09-21T10:51:40.734Z,24.62
2023-09-21T10:54:27.414Z,24.74
2023-09-21T10:57:14.455Z,24.73
2023-09-21T11:00:13.238Z,24.76
2023-09-21T11:03:00.614Z,24.77
2023-09-21T11:05:47.987Z,25.02
2023-09-21T11:08:35.051Z,24.97
2023-09-21T11:11:22.272Z,25.00
2023-09-21T11:14:08.874Z,24.89
2023-09-21T11:16:55.697Z,24.89
2023-09-21T11:19:43.382Z,24.99
2023-09-21T11:22:30.983Z,24.89
2023-09-21T11:25:23.420Z,24.73
2023-09-21T11:28:10.019Z,24.72
2023-09-21T11:30:59.737Z,24.92
2023-09-21T11:33:46.337Z,24.95
2023-09-21T11:36:33.058Z,25.10
2023-09-21T11:39:23.502Z,25.31
2023-09-21T11:42:12.134Z,25.38
2023-09-21T11:44:59.054Z,25.65
2023-09-21T11:47:55.891Z,25.75
2023-09-21T11:50:45.771Z,25.65
2023-09-21T11:53:32.755Z,25.66
2023-09-21T11:56:19.228Z,25.89
2023-09-21T11:59:07.603Z,26.05
2023-09-21T12:01:56.830Z,25.96
2023-09-21T12:04:44.985Z,25.81
2023-09-21T12:07:31.768Z,25.80
2023-09-21T12:10:18.815Z,25.69
2023-09-21T12:13:05.281Z,25.75
2023-09-21T12:15:57.339Z,25.76
2023-09-21T12:18:46.363Z,25.72
2023-09-21T12:21:35.683Z,25.85
2023-09-21T12:24:22.778Z,25.86
2023-09-21T12:27:09.133Z,25.84
2023-09-21T12:29:55.440Z,25.99
2023-09-21T12:32:42.490Z,26.22
2023-09-21T12:35:31.909Z,26.32
2023-09-21T12:38:18.615Z,26.55
2023-09-21T12:41:05.600Z,26.64
2023-09-21T12:43:51.928Z,26.60
2023-09-21T12:46:38.502Z,26.60
2023-09-21T12:49:25.301Z,26.68
2023-09-21T12:52:11.578Z,26.88
2023-09-21T12:54:58.238Z,26.70
2023-09-21T12:57:44.656Z,27.25
2023-09-21T13:00:33.926Z,27.34
2023-09-21T13:03:20.510Z,27.29
2023-09-21T13:06:07.200Z,27.15
2023-09-21T13:08:53.802Z,27.07
2023-09-21T13:11:41.385Z,26.88
2023-09-21T13:14:30.262Z,26.82
2023-09-21T13:17:17.052Z,27.09
2023-09-21T13:20:05.171Z,27.19
2023-09-21T13:22:52.375Z,27.12
2023-09-21T13:25:38.944Z,26.98
2023-09-21T13:28:25.246Z,27.12
2023-09-21T13:31:13.142Z,27.38
2023-09-21T13:33:59.518Z,27.42
2023-09-21T13:36:47.116Z,27.35
2023-09-21T13:39:34.264Z,27.15
2023-09-21T13:42:22.526Z,27.11
2023-09-21T13:45:11.625Z,26.87
2023-09-21T13:47:58.215Z,26.56
2023-09-21T13:50:44.905Z,26.26
2023-09-21T13:53:31.880Z,26.05
2023-09-21T13:56:18.773Z,25.82
2023-09-21T13:59:05.485Z,25.72
2023-09-21T14:01:51.941Z,25.54
2023-09-21T14:04:39.380Z,25.56
2023-09-21T14:07:26.211Z,25.48
2023-09-21T14:10:13.868Z,25.38
2023-09-21T14:13:00.863Z,25.49
2023-09-21T14:15:47.475Z,25.71
2023-09-21T14:18:34.206Z,26.00
2023-09-21T14:21:22.904Z,26.15
2023-09-21T14:24:10.422Z,26.27
2023-09-21T14:26:56.942Z,26.22
2023-09-21T14:29:43.290Z,26.15
2023-09-21T14:32:30.251Z,26.14
2023-09-21T14:35:16.948Z,26.16
2023-09-21T14:38:03.427Z,26.23
2023-09-21T14:40:50.642Z,26.13
2023-09-21T14:43:37.527Z,26.01
2023-09-21T14:46:24.398Z,25.88
2023-09-21T14:49:11.695Z,25.72
2023-09-21T14:51:58.663Z,25.55
2023-09-21T14:54:45.127Z,25.32
2023-09-21T14:57:31.980Z,25.19
2023-09-21T15:00:20.338Z,25.03
2023-09-21T15:03:09.398Z,24.97
2023-09-21T15:05:55.962Z,24.90
2023-09-21T15:08:42.480Z,24.79
2023-09-21T15:11:29.440Z,24.56
2023-09-21T15:14:16.062Z,24.41
2023-09-21T15:17:02.711Z,24.32
2023-09-21T15:19:49.517Z,24.14
2023-09-21T15:22:36.279Z,24.10
2023-09-21T15:25:22.865Z,23.24
2023-09-21T15:28:09.135Z,23.95
2023-09-21T15:30:55.426Z,23.95
2023-09-21T15:33:41.892Z,23.90
2023-09-21T15:36:28.259Z,23.86
2023-09-21T15:39:14.797Z,23.80
2023-09-21T15:42:01.497Z,23.72
2023-09-21T15:44:48.046Z,23.67
2023-09-21T15:47:35.389Z,23.56
2023-09-21T15:50:21.889Z,23.45
2023-09-21T15:53:08.483Z,23.31
2023-09-21T15:55:57.366Z,23.18
2023-09-21T15:58:44.162Z,23.07
2023-09-21T16:01:30.864Z,22.99
2023-09-21T16:04:18.638Z,22.89
2023-09-21T16:07:05.268Z,22.90
2023-09-21T16:09:51.806Z,22.93
2023-09-21T16:12:38.895Z,22.83
2023-09-21T16:15:25.245Z,22.75
2023-09-21T16:18:11.793Z,22.62
2023-09-21T16:20:58.276Z,22.55
2023-09-21T16:23:44.810Z,22.42
2023-09-21T16:26:31.424Z,22.43
2023-09-21T16:29:18.047Z,22.38
2023-09-21T16:32:05.065Z,22.39
2023-09-21T16:34:51.528Z,22.38
2023-09-21T16:37:38.852Z,22.50
2023-09-21T16:40:26.252Z,22.43
2023-09-21T16:43:12.767Z,22.38
2023-09-21T16:45:59.267Z,22.24
2023-09-21T16:48:45.964Z,22.29
2023-09-21T16:51:32.563Z,22.22
2023-09-21T16:54:19.187Z,22.13
2023-09-21T16:57:05.629Z,22.11
2023-09-21T16:59:52.516Z,22.02
2023-09-21T17:02:40.820Z,21.99
2023-09-21T17:05:27.170Z,21.91
2023-09-21T17:08:13.533Z,21.83
2023-09-21T17:10:59.997Z,21.75
2023-09-21T17:13:47.672Z,21.70
2023-09-21T17:16:34.462Z,21.63
2023-09-21T17:19:20.959Z,21.59
2023-09-21T17:22:07.493Z,21.45
2023-09-21T17:24:53.882Z,21.44
2023-09-21T17:27:40.817Z,21.36
2023-09-21T17:30:27.216Z,21.20
2023-09-21T17:33:13.843Z,21.20
2023-09-21T17:36:01.765Z,21.15
2023-09-21T17:38:48.392Z,21.12
2023-09-21T17:41:35.307Z,21.06
2023-09-21T17:44:21.799Z,21.05
2023-09-21T17:47:08.337Z,21.01
2023-09-21T17:49:54.828Z,21.00
2023-09-21T17:52:41.367Z,20.95
2023-09-21T17:55:27.624Z,21.02
2023-09-21T17:58:14.850Z,21.03
2023-09-21T18:01:01.805Z,21.01
2023-09-21T18:03:48.634Z,20.97
2023-09-21T18:06:36.359Z,20.98
2023-09-21T18:09:23.216Z,21.01
2023-09-21T18:12:09.754Z,20.96
2023-09-21T18:14:56.084Z,21.01
2023-09-21T18:17:44.216Z,21.09
2023-09-21T18:20:30.671Z,21.15
2023-09-21T18:23:17.165Z,21.32
2023-09-21T18:26:03.646Z,21.58
2023-09-21T18:28:50.597Z,21.71
2023-09-21T18:31:39.814Z,21.18
2023-09-21T18:34:26.310Z,20.07
2023-09-21T18:37:12.594Z,19.31
2023-09-21T18:40:00.056Z,18.58
2023-09-21T18:42:47.413Z,18.05
2023-09-21T18:45:33.974Z,17.66
2023-09-21T18:48:20.526Z,17.28
2023-09-21T18:51:07.665Z,17.09
2023-09-21T18:53:54.148Z,16.78
2023-09-21T18:56:50.821Z,16.75
2023-09-21T18:59:49.031Z,16.62
2023-09-21T19:02:36.053Z,16.60
2023-09-21T19:05:22.791Z,16.56
2023-09-21T19:08:09.384Z,16.43
2023-09-21T19:10:56.063Z,16.43
2023-09-21T19:13:44.014Z,16.34
2023-09-21T19:16:30.595Z,16.33
2023-09-21T19:19:19.275Z,16.26
2023-09-21T19:22:08.484Z,16.19
2023-09-21T19:24:55.709Z,16.07
2023-09-21T19:27:42.209Z,16.10
2023-09-21T19:30:28.826Z,15.98
2023-09-21T19:33:15.585Z,15.88
2023-09-21T19:36:02.289Z,15.85
2023-09-21T19:38:49.705Z,15.72
2023-09-21T19:41:36.194Z,15.50
2023-09-21T19:44:22.797Z,15.61
2023-09-21T19:47:09.733Z,15.63
2023-09-21T19:49:55.950Z,15.50
2023-09-21T19:52:42.568Z,15.55
2023-09-21T19:55:29.015Z,15.42
2023-09-21T19:58:15.501Z,15.46
2023-09-21T20:01:01.875Z,15.41
2023-09-21T20:03:50.235Z,15.34
2023-09-21T20:06:37.002Z,15.31
2023-09-21T20:09:24.114Z,15.27
2023-09-21T20:12:10.407Z,15.29
2023-09-21T20:14:56.821Z,15.28
2023-09-21T20:17:43.151Z,15.38
2023-09-21T20:20:30.404Z,15.16
2023-09-21T20:23:17.160Z,15.29
2023-09-21T20:26:05.997Z,15.25
2023-09-21T20:28:52.291Z,15.26
2023-09-21T20:31:38.869Z,15.15
2023-09-21T20:34:25.338Z,15.11
2023-09-21T20:37:11.916Z,15.13
2023-09-21T20:39:58.405Z,15.11
2023-09-21T20:42:44.624Z,15.15
2023-09-21T20:45:31.580Z,15.21
2023-09-21T20:48:18.272Z,15.22
2023-09-21T20:51:05.028Z,15.29
2023-09-21T20:53:51.440Z,15.29
2023-09-21T20:56:41.030Z,15.26
2023-09-21T20:59:28.014Z,15.26
2023-09-21T21:02:15.407Z,15.21
2023-09-21T21:05:02.222Z,15.21
2023-09-21T21:07:48.576Z,15.12
2023-09-21T21:10:35.180Z,15.15
2023-09-21T21:13:21.604Z,15.23
2023-09-21T21:16:08.100Z,15.32
2023-09-21T21:18:54.690Z,15.27
2023-09-21T21:21:41.394Z,15.20
2023-09-21T21:24:28.365Z,15.17
2023-09-21T21:27:14.752Z,15.19
2023-09-21T21:30:03.822Z,15.17
2023-09-21T21:32:50.627Z,15.24
2023-09-21T21:35:37.201Z,15.17
2023-09-21T21:38:24.210Z,15.23
2023-09-21T21:41:10.948Z,15.33
2023-09-21T21:43:57.250Z,15.20
2023-09-21T21:46:43.755Z,15.20
2023-09-21T21:49:30.512Z,15.22
2023-09-21T21:52:16.722Z,15.19
2023-09-21T21:55:04.162Z,15.17
2023-09-21T21:57:50.808Z,15.21
2023-09-21T22:00:40.496Z,15.23
2023-09-21T22:03:27.113Z,15.18
2023-09-21T22:06:13.697Z,15.18
2023-09-21T22:09:01.356Z,15.13
2023-09-21T22:11:48.936Z,15.16
2023-09-21T22:14:36.265Z,15.09
2023-09-21T22:17:23.449Z,15.13
2023-09-21T22:20:16.978Z,15.21
2023-09-21T22:23:03.990Z,15.26
2023-09-21T22:25:51.329Z,15.35
2023-09-21T22:28:38.530Z,15.16
2023-09-21T22:31:24.928Z,15.08
2023-09-21T22:34:11.456Z,15.17
2023-09-21T22:36:58.087Z,14.97
2023-09-21T22:39:44.720Z,15.11
2023-09-21T22:42:46.368Z,15.14
2023-09-21T22:45:33.277Z,14.99
2023-09-21T22:48:21.471Z,14.98
2023-09-21T22:51:08.067Z,14.89
2023-09-21T22:53:54.692Z,15.01
2023-09-21T22:56:41.202Z,15.04
2023-09-21T22:59:27.723Z,15.07
2023-09-21T23:02:14.296Z,15.15
2023-09-21T23:05:01.503Z,15.19
2023-09-21T23:07:48.221Z,15.20
2023-09-21T23:10:35.491Z,15.13
2023-09-21T23:13:21.881Z,15.06
2023-09-21T23:16:09.423Z,15.07
2023-09-21T23:18:56.489Z,15.08
2023-09-21T23:21:43.064Z,15.07
2023-09-21T23:24:30.360Z,14.96
2023-09-21T23:27:16.955Z,14.91
2023-09-21T23:30:03.565Z,14.90
2023-09-21T23:32:50.924Z,14.88
2023-09-21T23:35:39.806Z,15.01
2023-09-21T23:38:26.449Z,14.99
2023-09-21T23:41:12.895Z,14.90
2023-09-21T23:44:00.567Z,14.86
2023-09-21T23:46:47.202Z,14.84
2023-09-21T23:49:33.738Z,14.87
2023-09-21T23:52:20.552Z,14.85
2023-09-21T23:55:10.948Z,14.77
2023-09-21T23:57:57.484Z,14.79
